Time;durP1;ratioP1;P1;durP2;ratioP2;P2;SDS_P1;SDS_P2;PMS_P1;PMS_P2;Temp;Humidity;BMP_temperature;BMP_pressure;BME280_temperature;BME280_humidity;BME280_pressure;Samples;Min_cycle;Max_cycle;Signal;HPM_P1;HPM_P2
2022/10/24 00:01:51;;;;;;;16.60;10.00;;;14.90;82.40;;;;;;5073240;28;20107;-18
2022/10/24 00:04:17;;;;;;;14.40;8.60;;;14.90;82.40;;;;;;5072816;28;20484;-17
2022/10/24 00:06:43;;;;;;;15.38;9.00;;;14.90;82.40;;;;;;5072863;28;20024;-17
2022/10/24 00:09:09;;;;;;;16.75;9.18;;;14.90;82.40;;;;;;5072675;28;20036;-19
2022/10/24 00:11:37;;;;;;;13.05;8.98;;;14.90;82.40;;;;;;5073413;28;20024;-18
2022/10/24 00:14:03;;;;;;;17.70;10.80;;;14.90;82.40;;;;;;5072778;28;20107;-18
2022/10/24 00:16:29;;;;;;;23.90;11.27;;;14.90;82.40;;;;;;5073187;28;20054;-18
2022/10/24 00:18:55;;;;;;;18.05;10.43;;;14.90;82.60;;;;;;5072443;28;20028;-17
2022/10/24 00:21:21;;;;;;;16.35;9.60;;;14.90;82.60;;;;;;5071548;28;20028;-16
2022/10/24 00:23:48;;;;;;;18.00;9.27;;;14.80;82.60;;;;;;5072917;28;20032;-17
2022/10/24 00:26:15;;;;;;;12.07;7.82;;;14.80;82.70;;;;;;5072973;28;20039;-17
2022/10/24 00:28:41;;;;;;;15.02;8.85;;;14.80;82.70;;;;;;5072734;28;20032;-17
2022/10/24 00:31:12;;;;;;;11.73;8.30;;;14.80;82.60;;;;;;5072660;28;20083;-18
2022/10/24 00:33:37;;;;;;;14.07;8.57;;;14.80;82.70;;;;;;5073302;28;20040;-16
2022/10/24 00:36:03;;;;;;;13.48;8.70;;;14.80;82.70;;;;;;5072906;28;20056;-16
2022/10/24 00:38:30;;;;;;;16.95;10.20;;;14.80;82.60;;;;;;5072598;28;20059;-18
2022/10/24 00:40:56;;;;;;;17.48;10.32;;;14.80;82.60;;;;;;5072251;28;20058;-16
2022/10/24 00:43:24;;;;;;;19.17;9.65;;;14.70;82.60;;;;;;5072216;28;20017;-17
2022/10/24 00:45:55;;;;;;;17.13;9.88;;;14.80;82.70;;;;;;5072456;28;20503;-16
2022/10/24 00:48:39;;;;;;;16.67;9.70;;;14.80;82.70;;;;;;5072861;28;20372;-16
2022/10/24 00:51:14;;;;;;;14.15;9.50;;;14.80;82.70;;;;;;5072996;28;20055;-17
2022/10/24 00:53:44;;;;;;;17.48;9.93;;;14.80;82.80;;;;;;5077033;28;20103;-16
2022/10/24 00:56:13;;;;;;;15.13;10.10;;;14.80;82.90;;;;;;5076288;28;20021;-16
2022/10/24 00:58:43;;;;;;;14.68;9.27;;;14.80;82.80;;;;;;5076211;28;20353;-16
2022/10/24 01:01:11;;;;;;;14.68;9.10;;;14.80;82.90;;;;;;5075974;28;20574;-18
2022/10/24 01:03:37;;;;;;;12.70;8.68;;;14.90;83.00;;;;;;5076251;28;20066;-17
2022/10/24 01:06:33;;;;;;;14.88;9.07;;;14.90;82.90;;;;;;5076054;28;20020;-16
2022/10/24 01:09:23;;;;;;;11.13;7.95;;;14.90;82.80;;;;;;5075974;28;20032;-16
2022/10/24 01:12:10;;;;;;;12.25;8.65;;;14.90;82.90;;;;;;5075859;28;20028;-16
2022/10/24 01:14:44;;;;;;;17.15;10.43;;;15.00;82.90;;;;;;5075671;28;20040;-16
2022/10/24 01:17:13;;;;;;;22.45;12.85;;;15.00;82.80;;;;;;5075839;28;20024;-16
2022/10/24 01:19:47;;;;;;;17.23;9.70;;;15.10;83.10;;;;;;5075526;28;20029;-16
2022/10/24 01:22:23;;;;;;;19.45;10.35;;;15.10;83.00;;;;;;5075628;28;20033;-16
2022/10/24 01:25:05;;;;;;;17.25;10.30;;;15.10;82.90;;;;;;5075601;28;20032;-16
2022/10/24 01:27:43;;;;;;;14.90;8.85;;;15.20;83.10;;;;;;5075547;28;20498;-16
2022/10/24 01:30:12;;;;;;;16.13;10.00;;;15.20;83.00;;;;;;5075560;28;20064;-16
2022/10/24 01:32:59;;;;;;;13.75;8.13;;;15.20;83.00;;;;;;5074170;28;20054;-16
2022/10/24 01:35:35;;;;;;;15.63;8.95;;;15.40;83.00;;;;;;5075326;28;20025;-16
2022/10/24 01:38:18;;;;;;;14.25;9.30;;;15.40;83.00;;;;;;5075339;28;20024;-16
2022/10/24 01:41:04;;;;;;;14.40;9.52;;;15.40;83.00;;;;;;5075362;28;20029;-17
2022/10/24 01:43:39;;;;;;;14.88;8.75;;;15.50;83.00;;;;;;5075240;28;20056;-16
2022/10/24 01:46:12;;;;;;;21.92;11.88;;;15.60;83.00;;;;;;5075095;28;20028;-16
2022/10/24 01:48:48;;;;;;;14.88;9.35;;;15.60;83.10;;;;;;5075115;28;20021;-16
2022/10/24 01:51:16;;;;;;;17.42;11.13;;;15.60;83.00;;;;;;5075366;28;20440;-16
2022/10/24 01:53:44;;;;;;;25.17;13.88;;;15.70;82.80;;;;;;5075587;28;20472;-16
2022/10/24 01:56:10;;;;;;;20.67;11.52;;;15.70;82.90;;;;;;5075227;28;20023;-16
2022/10/24 01:58:36;;;;;;;30.67;15.18;;;15.80;82.80;;;;;;5075128;28;20025;-16
2022/10/24 02:01:12;;;;;;;32.88;16.08;;;15.80;83.10;;;;;;5074576;28;20074;-16
2022/10/24 02:03:43;;;;;;;28.40;14.02;;;15.90;83.10;;;;;;5074242;28;20048;-15
2022/10/24 02:06:24;;;;;;;24.27;12.82;;;15.90;83.40;;;;;;5075101;28;20048;-18
2022/10/24 02:08:57;;;;;;;30.15;16.38;;;15.90;83.40;;;;;;5074937;28;20468;-16
2022/10/24 02:11:24;;;;;;;28.95;14.75;;;16.00;83.50;;;;;;5074690;28;20025;-18
2022/10/24 02:13:50;;;;;;;26.65;13.52;;;16.00;84.10;;;;;;5074884;28;20020;-18
2022/10/24 02:16:18;;;;;;;21.35;12.13;;;16.10;84.10;;;;;;5073256;28;20050;-17
2022/10/24 02:18:50;;;;;;;17.88;11.43;;;16.10;83.80;;;;;;5074660;28;20442;-16
2022/10/24 02:21:51;;;;;;;29.80;15.27;;;16.20;83.60;;;;;;5074468;28;20127;-18
2022/10/24 02:24:38;;;;;;;23.60;12.45;;;16.20;83.40;;;;;;5074432;28;20116;-17
2022/10/24 02:27:13;;;;;;;37.13;15.20;;;16.30;83.50;;;;;;5074239;28;20483;-17
2022/10/24 02:29:46;;;;;;;23.77;12.73;;;16.30;83.60;;;;;;5075020;28;20363;-16
2022/10/24 02:32:18;;;;;;;23.67;12.13;;;16.30;83.40;;;;;;5074312;28;20111;-16
2022/10/24 02:34:46;;;;;;;20.92;12.05;;;16.30;83.30;;;;;;5074467;28;20455;-16
2022/10/24 02:37:15;;;;;;;21.25;11.77;;;16.30;83.40;;;;;;5074387;28;20387;-18
2022/10/24 02:39:43;;;;;;;23.80;13.23;;;16.40;83.40;;;;;;5074000;28;20029;-17
2022/10/24 02:42:12;;;;;;;30.88;15.75;;;16.40;83.20;;;;;;5072788;28;20025;-17
2022/10/24 02:44:40;;;;;;;22.25;11.75;;;16.40;83.20;;;;;;5073796;28;20040;-16
2022/10/24 02:47:10;;;;;;;25.17;12.07;;;16.50;83.20;;;;;;5073667;28;20036;-17
2022/10/24 02:49:36;;;;;;;21.95;11.13;;;16.50;83.20;;;;;;5074191;28;20055;-17
2022/10/24 02:52:02;;;;;;;21.42;12.38;;;16.60;83.30;;;;;;5074147;28;20028;-17
2022/10/24 02:54:28;;;;;;;20.88;10.85;;;16.50;83.10;;;;;;5073740;28;20503;-18
2022/10/24 02:56:59;;;;;;;22.90;10.60;;;16.60;83.00;;;;;;5073814;28;20036;-16
2022/10/24 02:59:25;;;;;;;20.30;11.50;;;16.70;83.00;;;;;;5074049;28;20082;-16
2022/10/24 03:01:51;;;;;;;26.02;12.15;;;16.70;82.90;;;;;;5073508;28;20049;-18
2022/10/24 03:04:17;;;;;;;24.90;13.55;;;16.70;82.90;;;;;;5074139;28;20037;-17
2022/10/24 03:06:44;;;;;;;19.83;11.75;;;16.70;82.80;;;;;;5073840;28;20035;-16
2022/10/24 03:09:09;;;;;;;20.77;11.48;;;16.70;82.80;;;;;;5073648;28;20021;-16
2022/10/24 03:11:36;;;;;;;16.10;10.20;;;16.70;82.80;;;;;;5073620;28;20384;-16
2022/10/24 03:14:02;;;;;;;17.48;10.80;;;16.60;82.70;;;;;;5073665;28;20016;-17
2022/10/24 03:16:28;;;;;;;18.58;10.50;;;16.60;82.80;;;;;;5073279;28;20029;-16
2022/10/24 03:18:55;;;;;;;19.50;11.35;;;16.60;82.80;;;;;;5073207;28;20017;-16
2022/10/24 03:21:21;;;;;;;17.83;10.93;;;16.50;82.80;;;;;;5073956;28;20027;-17
2022/10/24 03:23:47;;;;;;;16.67;9.50;;;16.60;82.80;;;;;;5073665;28;20013;-16
2022/10/24 03:26:12;;;;;;;23.90;12.30;;;16.50;82.90;;;;;;5073608;28;20384;-15
2022/10/24 03:28:38;;;;;;;20.05;10.63;;;16.60;82.80;;;;;;5073270;28;20439;-16
2022/10/24 03:31:05;;;;;;;22.80;11.32;;;16.60;82.80;;;;;;5073290;28;20095;-17
2022/10/24 03:33:31;;;;;;;22.58;12.77;;;16.60;82.80;;;;;;5073474;28;20028;-18
2022/10/24 03:35:58;;;;;;;20.27;11.48;;;16.60;82.90;;;;;;5073458;28;20063;-15
2022/10/24 03:38:25;;;;;;;18.90;9.82;;;16.60;83.00;;;;;;5071948;28;20119;-17
2022/10/24 03:40:51;;;;;;;23.67;13.30;;;16.60;82.90;;;;;;5073119;28;20029;-16
2022/10/24 03:43:17;;;;;;;19.77;10.73;;;16.60;83.00;;;;;;5073160;28;20119;-18
2022/10/24 03:45:43;;;;;;;21.40;11.10;;;16.60;82.80;;;;;;5073942;28;20427;-16
2022/10/24 03:48:10;;;;;;;18.73;11.60;;;16.60;82.80;;;;;;5073058;28;20081;-17
2022/10/24 03:50:36;;;;;;;18.90;10.27;;;16.60;82.90;;;;;;5072976;28;20032;-16
2022/10/24 03:53:03;;;;;;;21.08;10.48;;;16.60;82.80;;;;;;5073010;28;20029;-15
2022/10/24 03:55:29;;;;;;;15.77;9.25;;;16.60;82.80;;;;;;5073314;28;20052;-18
2022/10/24 03:57:55;;;;;;;19.60;10.57;;;16.60;82.70;;;;;;5073097;28;20024;-16
2022/10/24 04:00:22;;;;;;;22.70;12.88;;;16.60;82.70;;;;;;5072734;28;20024;-17
2022/10/24 04:02:50;;;;;;;18.27;10.98;;;16.60;82.80;;;;;;5072734;28;20035;-16
2022/10/24 04:05:17;;;;;;;23.08;12.02;;;16.60;82.80;;;;;;5072888;28;20043;-16
2022/10/24 04:07:43;;;;;;;19.73;10.70;;;16.60;82.80;;;;;;5073070;28;20427;-17
2022/10/24 04:10:09;;;;;;;17.23;10.45;;;16.70;82.70;;;;;;5073041;28;20499;-17
2022/10/24 04:12:35;;;;;;;21.98;12.48;;;16.70;82.70;;;;;;5072841;28;20028;-16
2022/10/24 04:15:01;;;;;;;23.33;12.50;;;16.70;82.70;;;;;;5072746;28;20428;-16
2022/10/24 04:17:27;;;;;;;22.15;11.00;;;16.70;82.90;;;;;;5073079;28;20518;-18
2022/10/24 04:19:53;;;;;;;19.67;11.73;;;16.70;82.70;;;;;;5072655;28;20120;-16
2022/10/24 04:22:19;;;;;;;23.67;13.98;;;16.80;82.80;;;;;;5072723;28;20096;-16
2022/10/24 04:24:45;;;;;;;21.00;12.75;;;16.80;83.00;;;;;;5073045;28;20025;-16
2022/10/24 04:27:11;;;;;;;21.33;12.52;;;16.80;82.80;;;;;;5074729;28;20050;-16
2022/10/24 04:29:37;;;;;;;22.55;13.93;;;16.80;82.80;;;;;;5076912;28;20070;-16
2022/10/24 04:32:03;;;;;;;21.48;12.40;;;16.80;83.60;;;;;;5075218;28;20418;-16
2022/10/24 04:34:29;;;;;;;20.02;11.40;;;16.80;83.30;;;;;;5076451;28;20025;-16
2022/10/24 04:36:55;;;;;;;20.27;11.55;;;16.80;83.10;;;;;;5076283;28;20020;-16
2022/10/24 04:39:21;;;;;;;22.00;11.27;;;16.90;83.30;;;;;;5076899;28;20103;-16
2022/10/24 04:41:47;;;;;;;20.50;11.38;;;16.90;83.00;;;;;;5076571;28;20376;-16
2022/10/24 04:44:13;;;;;;;17.95;10.73;;;16.90;83.00;;;;;;5076243;28;20436;-16
2022/10/24 04:46:39;;;;;;;16.20;10.15;;;16.90;83.00;;;;;;5076130;28;20028;-16
2022/10/24 04:49:05;;;;;;;17.30;9.38;;;16.90;82.90;;;;;;5076390;28;20039;-16
2022/10/24 04:51:31;;;;;;;15.68;9.88;;;17.00;82.80;;;;;;5076172;28;20600;-17
2022/10/24 04:53:57;;;;;;;15.77;10.10;;;16.90;82.80;;;;;;5076267;28;20104;-16
2022/10/24 04:56:24;;;;;;;19.38;11.52;;;17.00;82.80;;;;;;5076102;28;20032;-16
2022/10/24 04:58:50;;;;;;;17.02;11.05;;;17.00;82.80;;;;;;5076410;28;20024;-16
2022/10/24 05:01:16;;;;;;;16.40;9.98;;;17.10;82.80;;;;;;5076111;28;20391;-16
2022/10/24 05:03:42;;;;;;;18.17;10.10;;;17.10;82.70;;;;;;5076201;28;20039;-16
2022/10/24 05:06:08;;;;;;;18.33;10.80;;;17.10;82.70;;;;;;5076954;28;20020;-16
2022/10/24 05:08:40;;;;;;;21.92;11.40;;;17.10;82.70;;;;;;5076148;28;20032;-16
2022/10/24 05:11:10;;;;;;;16.52;10.32;;;17.20;82.60;;;;;;5075579;28;20063;-16
2022/10/24 05:13:37;;;;;;;14.13;8.63;;;17.10;82.60;;;;;;5076054;28;20023;-17
2022/10/24 05:16:05;;;;;;;18.45;10.65;;;17.20;82.60;;;;;;5075625;28;20032;-16
2022/10/24 05:18:31;;;;;;;18.65;10.73;;;17.20;82.50;;;;;;5075975;28;20028;-18
2022/10/24 05:20:59;;;;;;;20.40;11.10;;;17.20;82.60;;;;;;5075584;28;20029;-17
2022/10/24 05:23:25;;;;;;;19.38;10.73;;;17.10;82.50;;;;;;5075641;28;20480;-17
2022/10/24 05:25:51;;;;;;;21.35;12.85;;;17.10;82.60;;;;;;5075881;28;20024;-17
2022/10/24 05:28:17;;;;;;;27.17;14.70;;;17.00;82.50;;;;;;5074314;28;20051;-17
2022/10/24 05:30:44;;;;;;;21.33;12.80;;;17.00;82.60;;;;;;5075416;28;20460;-16
2022/10/24 05:33:10;;;;;;;23.77;11.32;;;16.90;82.70;;;;;;5075546;28;20032;-16
2022/10/24 05:35:36;;;;;;;19.33;11.40;;;16.90;82.80;;;;;;5075764;28;20024;-16
2022/10/24 05:38:02;;;;;;;21.10;11.85;;;16.90;83.00;;;;;;5074002;28;20510;-17
2022/10/24 05:40:28;;;;;;;21.88;10.65;;;16.90;83.00;;;;;;5075429;28;20037;-16
2022/10/24 05:42:55;;;;;;;20.05;11.13;;;16.90;83.00;;;;;;5075003;28;20484;-16
2022/10/24 05:45:21;;;;;;;18.83;11.07;;;16.90;83.10;;;;;;5075017;28;20051;-17
2022/10/24 05:47:46;;;;;;;20.38;11.77;;;16.90;83.10;;;;;;5075450;28;20021;-18
2022/10/24 05:50:13;;;;;;;22.05;11.23;;;17.00;83.10;;;;;;5075437;28;20047;-16
2022/10/24 05:52:41;;;;;;;19.13;11.25;;;17.00;83.00;;;;;;5075182;28;20099;-16
2022/10/24 05:55:09;;;;;;;18.48;10.60;;;17.10;83.00;;;;;;5073960;28;20046;-17
2022/10/24 05:57:38;;;;;;;19.58;11.02;;;17.10;83.00;;;;;;5074918;28;20024;-17
2022/10/24 06:00:10;;;;;;;19.55;11.07;;;17.20;82.90;;;;;;5074701;28;20038;-16
2022/10/24 06:02:36;;;;;;;19.38;10.55;;;17.20;82.80;;;;;;5073915;28;20028;-16
2022/10/24 06:05:02;;;;;;;15.85;10.15;;;17.30;82.80;;;;;;5074599;28;20028;-17
2022/10/24 06:07:29;;;;;;;19.00;11.18;;;17.30;82.80;;;;;;5075091;28;20025;-16
2022/10/24 06:09:55;;;;;;;17.95;11.18;;;17.30;82.80;;;;;;5075013;28;20024;-16
2022/10/24 06:12:20;;;;;;;17.17;10.82;;;17.40;82.60;;;;;;5074663;28;20369;-17
2022/10/24 06:14:46;;;;;;;19.80;11.02;;;17.40;82.60;;;;;;5073510;28;20074;-17
2022/10/24 06:17:13;;;;;;;17.85;11.05;;;17.50;82.60;;;;;;5074764;28;20051;-16
2022/10/24 06:19:39;;;;;;;19.90;11.18;;;17.50;82.40;;;;;;5074763;28;20052;-18
2022/10/24 06:22:07;;;;;;;17.60;10.55;;;17.60;82.20;;;;;;5074794;28;20020;-16
2022/10/24 06:24:37;;;;;;;17.70;11.30;;;17.60;82.20;;;;;;5074699;28;20051;-16
2022/10/24 06:27:04;;;;;;;18.10;11.18;;;17.70;82.20;;;;;;5074133;28;20033;-17
2022/10/24 06:29:31;;;;;;;17.77;10.80;;;17.70;82.20;;;;;;5074629;28;20021;-16
2022/10/24 06:31:57;;;;;;;17.60;10.10;;;17.90;82.20;;;;;;5074151;28;20033;-16
2022/10/24 06:34:23;;;;;;;18.05;10.95;;;17.90;82.20;;;;;;5074378;28;20476;-18
2022/10/24 06:36:49;;;;;;;22.08;11.90;;;17.90;82.00;;;;;;5073985;28;20498;-16
2022/10/24 06:39:16;;;;;;;19.90;11.43;;;18.00;81.90;;;;;;5074086;28;20028;-17
2022/10/24 06:41:42;;;;;;;20.75;11.52;;;18.00;81.90;;;;;;5074333;28;20071;-16
2022/10/24 06:44:08;;;;;;;15.90;10.68;;;18.00;81.80;;;;;;5074344;28;20472;-16
2022/10/24 06:46:33;;;;;;;21.50;11.20;;;18.10;81.80;;;;;;5074515;28;20068;-16
2022/10/24 06:48:59;;;;;;;18.83;10.98;;;18.20;81.70;;;;;;5073680;28;20507;-15
2022/10/24 06:51:26;;;;;;;22.77;12.10;;;18.20;81.50;;;;;;5074335;28;20396;-15
2022/10/24 06:53:52;;;;;;;18.60;11.63;;;18.20;81.40;;;;;;5073078;28;20032;-18
2022/10/24 06:56:18;;;;;;;25.65;13.27;;;18.30;81.30;;;;;;5074122;28;20029;-16
2022/10/24 06:58:44;;;;;;;21.30;12.65;;;18.30;81.20;;;;;;5073656;28;20032;-18
2022/10/24 07:01:13;;;;;;;23.08;13.85;;;18.30;81.10;;;;;;5073669;28;20063;-16
2022/10/24 07:03:40;;;;;;;27.83;17.52;;;18.30;81.00;;;;;;5073974;28;20388;-17
2022/10/24 07:06:27;;;;;;;38.28;23.45;;;18.20;81.10;;;;;;5073598;28;20063;-17
2022/10/24 07:08:55;;;;;;;27.45;16.95;;;18.20;81.10;;;;;;5072220;28;20027;-15
2022/10/24 07:11:22;;;;;;;35.53;23.58;;;18.20;81.30;;;;;;5074397;28;20017;-15
2022/10/24 07:13:48;;;;;;;26.20;14.93;;;18.10;81.40;;;;;;5073713;28;20048;-16
2022/10/24 07:16:15;;;;;;;26.88;15.00;;;18.10;81.40;;;;;;5073601;28;20040;-16
2022/10/24 07:18:41;;;;;;;24.45;14.18;;;18.10;81.50;;;;;;5073662;28;20032;-16
2022/10/24 07:21:13;;;;;;;24.83;12.35;;;18.10;81.50;;;;;;5073344;28;20163;-17
2022/10/24 07:23:38;;;;;;;29.33;14.52;;;18.20;81.40;;;;;;5072129;28;20025;-17
2022/10/24 07:26:08;;;;;;;27.00;14.75;;;18.20;81.30;;;;;;5073492;28;20069;-17
2022/10/24 07:28:35;;;;;;;19.88;12.48;;;18.20;81.30;;;;;;5073280;28;20017;-16
2022/10/24 07:31:02;;;;;;;25.08;14.23;;;18.10;81.20;;;;;;5073261;28;20098;-17
2022/10/24 07:33:29;;;;;;;17.60;11.57;;;18.20;81.30;;;;;;5073546;28;20052;-16
2022/10/24 07:35:55;;;;;;;22.17;12.00;;;18.20;81.30;;;;;;5073546;28;20017;-17
2022/10/24 07:38:21;;;;;;;23.25;13.43;;;18.20;81.30;;;;;;5073144;28;20036;-16
2022/10/24 07:40:47;;;;;;;18.40;11.88;;;18.20;81.20;;;;;;5072862;28;20435;-17
2022/10/24 07:43:14;;;;;;;21.70;12.50;;;18.30;81.10;;;;;;5073225;28;20399;-16
2022/10/24 07:45:41;;;;;;;19.50;11.65;;;18.30;81.00;;;;;;5072973;28;20035;-17
2022/10/24 07:48:07;;;;;;;21.95;13.23;;;18.40;80.90;;;;;;5072983;28;20514;-16
2022/10/24 07:50:34;;;;;;;18.77;11.60;;;18.40;80.80;;;;;;5073085;28;20052;-16
2022/10/24 07:53:00;;;;;;;28.15;13.65;;;18.50;80.60;;;;;;5073110;28;20017;-14
2022/10/24 07:55:26;;;;;;;20.48;11.88;;;18.50;80.60;;;;;;5073610;28;20029;-16
2022/10/24 07:57:52;;;;;;;24.75;13.70;;;18.60;80.40;;;;;;5073037;28;20442;-17
2022/10/24 08:00:18;;;;;;;19.73;12.43;;;18.60;80.30;;;;;;5072879;28;20024;-16
2022/10/24 08:02:44;;;;;;;24.20;13.27;;;18.70;80.30;;;;;;5077271;28;20070;-17
2022/10/24 08:05:10;;;;;;;24.35;13.00;;;18.80;80.40;;;;;;5077198;28;20484;-16
2022/10/24 08:07:37;;;;;;;21.45;13.75;;;18.80;80.20;;;;;;5077296;28;20032;-15
2022/10/24 08:10:04;;;;;;;20.40;12.05;;;18.90;80.30;;;;;;5077005;28;20103;-17
2022/10/24 08:12:30;;;;;;;20.88;13.27;;;18.90;80.10;;;;;;5077492;28;20027;-16
2022/10/24 08:14:56;;;;;;;18.60;12.30;;;19.00;80.00;;;;;;5077091;28;20032;-15
2022/10/24 08:17:23;;;;;;;22.58;11.70;;;19.10;79.90;;;;;;5076827;28;20388;-16
2022/10/24 08:19:50;;;;;;;25.67;14.65;;;19.20;79.80;;;;;;5077044;28;20068;-17
2022/10/24 08:22:16;;;;;;;22.20;13.20;;;19.30;79.70;;;;;;5076733;28;20063;-16
2022/10/24 08:24:43;;;;;;;22.35;12.82;;;19.40;79.50;;;;;;5077038;28;20051;-17
2022/10/24 08:27:09;;;;;;;28.67;15.02;;;19.40;79.50;;;;;;5076537;28;20032;-16
2022/10/24 08:29:35;;;;;;;26.10;14.18;;;19.50;79.50;;;;;;5076623;28;20526;-16
2022/10/24 08:32:01;;;;;;;24.00;12.50;;;19.60;79.40;;;;;;5075271;28;20056;-16
2022/10/24 08:34:27;;;;;;;21.58;13.15;;;19.70;79.40;;;;;;5076508;28;20075;-16
2022/10/24 08:36:53;;;;;;;26.67;15.57;;;19.90;79.50;;;;;;5075208;28;20066;-16
2022/10/24 08:39:19;;;;;;;30.42;16.63;;;20.00;79.30;;;;;;5075413;28;20028;-17
2022/10/24 08:41:54;;;;;;;27.23;16.40;;;20.10;79.00;;;;;;5076332;28;20043;-15
2022/10/24 08:44:35;;;;;;;32.30;17.88;;;20.20;78.70;;;;;;5076340;28;20185;-16
2022/10/24 08:47:08;;;;;;;26.77;15.45;;;20.30;78.40;;;;;;5076328;28;20028;-16
2022/10/24 08:49:46;;;;;;;27.58;16.80;;;20.40;78.30;;;;;;5076528;28;20032;-16
2022/10/24 08:52:22;;;;;;;28.05;15.98;;;20.40;78.40;;;;;;5076532;28;20097;-18
2022/10/24 08:54:51;;;;;;;32.90;18.27;;;20.60;78.40;;;;;;5075963;28;20036;-16
2022/10/24 08:57:28;;;;;;;28.42;16.30;;;20.70;78.30;;;;;;5076353;28;20035;-16
2022/10/24 08:59:59;;;;;;;36.97;18.70;;;20.80;78.20;;;;;;5074803;28;20029;-17
2022/10/24 09:02:27;;;;;;;27.33;17.17;;;21.00;77.90;;;;;;5076022;28;20021;-16
2022/10/24 09:05:03;;;;;;;30.90;17.15;;;21.10;77.60;;;;;;5075791;28;20486;-14
2022/10/24 09:07:29;;;;;;;34.25;17.83;;;21.30;77.20;;;;;;5076317;28;20020;-16
2022/10/24 09:10:12;;;;;;;41.53;20.33;;;21.50;76.80;;;;;;5075891;28;20027;-16
2022/10/24 09:12:38;;;;;;;36.13;18.80;;;21.60;76.70;;;;;;5075583;28;20380;-16
2022/10/24 09:15:23;;;;;;;37.63;18.38;;;21.70;76.50;;;;;;5075841;28;20036;-15
2022/10/24 09:17:50;;;;;;;27.73;15.73;;;21.70;76.40;;;;;;5076069;28;20020;-16
2022/10/24 09:20:32;;;;;;;27.88;15.88;;;21.70;76.60;;;;;;5075914;28;20089;-16
2022/10/24 09:23:03;;;;;;;28.65;15.40;;;21.90;76.60;;;;;;5075369;28;20032;-17
2022/10/24 09:25:34;;;;;;;23.75;15.00;;;21.90;76.40;;;;;;5075920;28;20418;-16
2022/10/24 09:28:03;;;;;;;26.17;14.63;;;22.20;76.20;;;;;;5075933;28;20098;-16
2022/10/24 09:30:29;;;;;;;30.70;17.33;;;22.40;75.90;;;;;;5075458;28;20476;-16
2022/10/24 09:32:57;;;;;;;27.98;16.35;;;22.50;75.40;;;;;;5074164;28;20025;-16
2022/10/24 09:35:26;;;;;;;27.52;14.93;;;22.70;75.20;;;;;;5075672;28;20025;-16
2022/10/24 09:37:55;;;;;;;25.50;15.40;;;22.80;75.00;;;;;;5075957;28;20028;-17
2022/10/24 09:40:24;;;;;;;29.75;16.35;;;23.00;74.50;;;;;;5075205;28;20028;-16
2022/10/24 09:42:53;;;;;;;26.17;16.27;;;23.20;74.00;;;;;;5075200;28;20063;-16
2022/10/24 09:45:58;;;;;;;27.50;17.33;;;23.30;73.80;;;;;;5073657;28;20482;-16
2022/10/24 09:48:43;;;;;;;31.67;17.10;;;23.30;73.30;;;;;;5033032;28;20021;-16
2022/10/24 09:51:21;;;;;;;38.72;20.15;;;23.30;73.20;;;;;;5032971;28;20029;-17
2022/10/24 09:54:06;;;;;;;33.65;18.63;;;23.40;72.90;;;;;;5033149;28;20041;-16
2022/10/24 09:56:40;;;;;;;34.08;19.27;;;23.30;72.80;;;;;;5033363;28;20083;-16
2022/10/24 09:59:44;;;;;;;34.00;18.60;;;23.10;73.10;;;;;;5032899;28;20405;-15
2022/10/24 10:02:11;;;;;;;28.98;16.65;;;23.00;73.50;;;;;;5032911;28;20083;-16
2022/10/24 10:04:38;;;;;;;38.65;20.10;;;23.10;73.70;;;;;;5032856;28;20121;-16
2022/10/24 10:07:09;;;;;;;36.75;20.98;;;23.20;73.00;;;;;;5032807;28;20037;-15
2022/10/24 10:09:41;;;;;;;37.13;20.60;;;23.30;72.80;;;;;;5032751;28;20081;-18
2022/10/24 10:12:33;;;;;;;42.28;22.70;;;23.50;72.30;;;;;;5032797;28;20042;-16
2022/10/24 10:15:31;;;;;;;35.50;20.30;;;23.70;72.30;;;;;;5032476;28;20108;-16
2022/10/24 10:18:02;;;;;;;30.20;19.52;;;24.00;70.80;;;;;;5033799;28;20026;-15
2022/10/24 10:20:37;;;;;;;33.08;19.67;;;24.30;71.10;;;;;;5074527;28;20028;-15
2022/10/24 10:23:27;;;;;;;30.05;18.30;;;24.60;69.90;;;;;;5074494;28;20067;-15
2022/10/24 10:26:13;;;;;;;28.67;17.88;;;24.90;70.00;;;;;;5074319;28;20055;-15
2022/10/24 10:28:51;;;;;;;29.73;17.70;;;25.10;68.70;;;;;;5074707;28;20040;-15
2022/10/24 10:31:21;;;;;;;35.30;18.85;;;25.20;68.00;;;;;;5074661;28;20020;-16
2022/10/24 10:33:56;;;;;;;31.35;17.73;;;25.20;67.60;;;;;;5074243;28;20107;-16
2022/10/24 10:36:28;;;;;;;31.15;18.33;;;25.30;67.60;;;;;;5074161;28;20119;-16
2022/10/24 10:39:41;;;;;;;30.50;17.23;;;25.40;67.20;;;;;;5074031;28;20503;-16
2022/10/24 10:42:13;;;;;;;25.08;16.65;;;25.50;65.90;;;;;;5032032;28;20041;-16
2022/10/24 10:45:12;;;;;;;32.17;18.63;;;25.50;67.30;;;;;;5031829;28;20076;-16
2022/10/24 10:47:59;;;;;;;21.17;14.60;;;25.50;67.20;;;;;;5032014;28;20056;-15
2022/10/24 10:50:45;;;;;;;31.63;19.13;;;25.70;67.20;;;;;;5032282;28;20034;-15
2022/10/24 10:53:29;;;;;;;25.92;16.38;;;25.80;65.20;;;;;;5031946;28;20030;-15
2022/10/24 10:56:12;;;;;;;25.50;15.65;;;25.80;65.10;;;;;;5031977;28;20025;-16
2022/10/24 10:58:55;;;;;;;23.40;14.85;;;25.90;66.30;;;;;;5031982;28;20068;-16
2022/10/24 11:01:46;;;;;;;26.33;15.43;;;25.90;66.00;;;;;;5031705;28;20029;-15
2022/10/24 11:04:41;;;;;;;24.83;15.30;;;26.00;65.80;;;;;;5031804;28;20034;-16
2022/10/24 11:07:41;;;;;;;21.73;14.60;;;26.10;65.60;;;;;;5015033;28;20068;-15
2022/10/24 11:10:14;;;;;;;33.05;19.15;;;26.10;65.50;;;;;;5015093;28;20138;-16
2022/10/24 11:12:44;;;;;;;25.02;15.00;;;26.20;65.30;;;;;;5031652;28;20033;-16
2022/10/24 11:15:33;;;;;;;26.73;15.60;;;26.20;65.10;;;;;;5031326;28;20029;-16
2022/10/24 11:17:58;;;;;;;26.45;15.40;;;26.20;64.40;;;;;;5048492;28;20191;-15
2022/10/24 11:20:30;;;;;;;25.52;16.30;;;26.30;64.90;;;;;;5073301;28;20124;-15
2022/10/24 11:23:06;;;;;;;26.92;15.70;;;26.40;64.80;;;;;;5073267;28;20070;-16
2022/10/24 11:25:41;;;;;;;22.40;13.73;;;26.60;64.00;;;;;;5073870;28;20020;-16
2022/10/24 11:28:30;;;;;;;25.17;15.70;;;26.80;63.10;;;;;;5073560;28;20036;-16
2022/10/24 11:31:14;;;;;;;26.80;17.00;;;27.00;62.10;;;;;;5073097;28;20028;-17
2022/10/24 11:34:04;;;;;;;25.50;15.95;;;27.10;61.30;;;;;;5073316;28;20031;-14
2022/10/24 11:36:49;;;;;;;28.70;16.05;;;27.40;61.40;;;;;;5073164;28;20476;-15
2022/10/24 11:39:28;;;;;;;21.83;14.77;;;27.60;60.10;;;;;;5073170;28;20056;-16
2022/10/24 11:42:11;;;;;;;25.23;14.95;;;27.80;60.60;;;;;;5074124;28;20024;-15
2022/10/24 11:44:43;;;;;;;27.95;17.70;;;28.00;60.00;;;;;;5073613;28;20488;-16
2022/10/24 11:47:24;;;;;;;25.10;16.25;;;28.40;58.90;;;;;;5072903;28;20025;-15
2022/10/24 11:50:20;;;;;;;27.50;16.25;;;28.50;57.60;;;;;;5073169;28;20471;-16
2022/10/24 11:52:55;;;;;;;31.48;18.33;;;28.80;58.60;;;;;;5073065;28;20074;-15
2022/10/24 11:55:30;;;;;;;22.33;15.27;;;29.00;58.00;;;;;;5073926;28;20020;-15
2022/10/24 11:57:59;;;;;;;24.73;15.63;;;29.30;56.70;;;;;;5073077;28;20484;-17
2022/10/24 12:01:04;;;;;;;22.38;14.25;;;29.50;55.70;;;;;;5072822;28;20033;-15
2022/10/24 12:04:16;;;;;;;21.90;15.00;;;29.80;54.80;;;;;;5071181;28;20029;-16
2022/10/24 12:06:57;;;;;;;21.67;14.75;;;29.90;53.50;;;;;;5073006;28;20495;-15
2022/10/24 12:09:28;;;;;;;26.42;16.10;;;29.90;53.80;;;;;;5073299;28;20052;-15
2022/10/24 12:12:28;;;;;;;24.25;14.38;;;29.70;54.20;;;;;;5073297;28;20037;-15
2022/10/24 12:15:37;;;;;;;24.33;14.05;;;29.50;54.20;;;;;;5072593;28;20103;-15
2022/10/24 12:18:12;;;;;;;20.85;13.70;;;29.40;55.10;;;;;;5072853;28;20032;-16
2022/10/24 12:20:40;;;;;;;26.52;15.07;;;29.40;55.70;;;;;;5072899;28;20029;-15
2022/10/24 12:23:15;;;;;;;20.63;14.18;;;29.50;55.10;;;;;;5072622;28;20056;-15
2022/10/24 12:25:43;;;;;;;22.38;13.82;;;29.60;55.00;;;;;;5073036;28;20066;-15
2022/10/24 12:28:22;;;;;;;22.80;14.57;;;29.70;55.00;;;;;;5072657;28;20048;-15
2022/10/24 12:31:07;;;;;;;25.63;15.63;;;29.90;52.40;;;;;;5072578;28;20365;-15
2022/10/24 12:33:33;;;;;;;23.95;13.63;;;29.90;53.30;;;;;;5072644;28;20023;-15
2022/10/24 12:35:59;;;;;;;22.25;13.52;;;29.90;53.30;;;;;;5072942;28;20017;-16
2022/10/24 12:38:28;;;;;;;24.77;14.38;;;30.10;52.90;;;;;;5072925;28;20028;-16
2022/10/24 12:40:58;;;;;;;26.08;14.45;;;30.20;52.60;;;;;;5072355;28;20040;-16
2022/10/24 12:43:31;;;;;;;19.50;14.35;;;30.40;52.20;;;;;;5071163;28;20020;-16
2022/10/24 12:46:13;;;;;;;22.92;13.73;;;30.40;52.20;;;;;;5072828;28;20029;-16
2022/10/24 12:48:42;;;;;;;25.73;14.75;;;30.50;52.70;;;;;;5075445;28;20484;-16
2022/10/24 12:51:36;;;;;;;27.25;16.25;;;30.60;52.30;;;;;;5076309;28;20044;-16